Airfield :
LOGIN :

Register | Disclaimer

   EN    FR    IT 

 










Legend :    VFR   Marginal VFR   IFR   Intensive IFR   Very Intensive IFR
Visi :
Ceiling :
>= 8 km
>= 3000ft
5 to 8 km
1000 to 3000 ft
1500m to 5 km
500 to 1000 ft
800 to 1500m
200 to 500 ft
< 800m
< 200 ft
Symbols :   Thunderstorms  Fog  Heavy snow  Heavy precipitations  Wind > 20 kt
SIGMETs :     Misc.  Thunderstorms  Icing  Turbulence  Mountain Waves  Volcanic Ashes






- Airport Elevation : 1496 ft
- IATA code : SBZ


LRSB - Sibiu

CURRENT METAR :
  • 270000Z 00000KT 9999 -SHRA FEW038CB BKN043 06/06 Q0997 R27/29//95 NOSIG

EXPIRED METARs :
  • 262330Z 00000KT 9999 FEW036CB BKN038 06/06 Q0997 R27/29//95 NOSIG
  • 262300Z 15004KT 9999 FEW036CB SCT039 BKN086 06/06 Q0997 R27/29//95 NOSIG
  • 262230Z 14003KT 110V170 9000 -SHRA SCT036CB SCT045 BKN083 06/06 Q0997 R27/29//95 NOSIG
  • 262200Z 12004KT 070V170 9999 FEW035CB BKN036 OVC083 06/06 Q0997 RESHRA R27/29//95 NOSIG
  • 262130Z 35004KT 260V030 8000 SHRA SCT036CB BKN039 07/06 Q0998 R27/29//95 NOSIG

TAF TAF LRSB
Valid from the 27 at 00:00 until the 28 at 00:00 UTC


262300Z 2700/2724 VRB04KT 9999 SCT050
PROB40
TEMPO 2700/2702 5000 -SHRA SCT030CB BKN080
TEMPO 2702/2711 3000 RA BKN010 OVC040
BECMG 2711/2713 31010KT
PROB40
TEMPO 2714/2717 5000 -RA -SHRA SCT035CB BKN045
BECMG 2717/2719 VRB04KT



MET'MAP, your aeronautical weather chart ! - Copyright ORBIFLY December 2007 - Disclaimer

ORBIFLY MET'MAP TEAM :

Programming & Development : Alexandra Zaïnal
Concept & original design : Baudouin d'Aumeries
Assistance for programming : Marc-Olivier Méhu
Technical & hardware support : Manuel Goepfert

Contact : metmap@orbifly.com




SOURCES & CREDITS :

   NOAA